createdAt,value
2019-05-26T02:13:53.850Z,4.00
2019-05-26T02:14:53.839Z,4.00
2019-05-26T02:15:53.827Z,4.00
2019-05-26T02:16:53.870Z,4.00
2019-05-26T02:17:53.804Z,4.00
2019-05-26T02:18:53.793Z,4.00
2019-05-26T02:20:53.777Z,4.00
2019-05-26T02:21:53.761Z,4.00
2019-05-26T02:22:53.746Z,4.00
2019-05-26T02:23:53.732Z,8.00
2019-05-26T02:24:53.721Z,4.00
2019-05-26T02:25:53.712Z,4.00
2019-05-26T02:26:53.700Z,8.00
2019-05-26T02:27:53.690Z,8.00
2019-05-26T02:28:53.679Z,8.00
2019-05-26T02:29:53.665Z,12.00
2019-05-26T02:30:53.667Z,8.00
2019-05-26T02:31:53.641Z,12.00
2019-05-26T02:32:53.632Z,12.00
2019-05-26T02:33:53.624Z,12.00
2019-05-26T02:34:53.612Z,16.00
2019-05-26T02:35:53.602Z,16.00
2019-05-26T02:36:53.587Z,20.00
2019-05-26T02:37:53.573Z,24.00
2019-05-26T02:39:01.991Z,24.00
2019-05-26T02:40:18.033Z,28.00
2019-05-26T02:41:18.025Z,32.00
2019-05-26T02:42:18.012Z,36.00
2019-05-26T02:43:18.006Z,40.00
2019-05-26T02:44:17.986Z,48.00
2019-05-26T02:45:17.974Z,52.00
2019-05-26T02:46:17.971Z,56.00
2019-05-26T02:47:17.951Z,60.00
2019-05-26T02:48:17.939Z,64.00
2019-05-26T02:49:17.935Z,72.00
2019-05-26T02:50:17.926Z,76.00
2019-05-26T02:51:17.915Z,80.00
2019-05-26T02:52:17.895Z,84.00
2019-05-26T02:53:17.883Z,92.00
2019-05-26T02:54:17.876Z,96.00
2019-05-26T02:55:17.862Z,100.00
2019-05-26T02:56:17.859Z,108.00
2019-05-26T02:57:17.860Z,112.00
2019-05-26T02:58:17.898Z,120.00
2019-05-26T02:59:17.818Z,128.00
2019-05-26T03:00:17.814Z,136.00
2019-05-26T03:01:17.801Z,144.00
2019-05-26T03:02:17.782Z,152.00
2019-05-26T03:03:17.769Z,160.00
2019-05-26T03:04:17.760Z,168.00
2019-05-26T03:05:17.748Z,180.00
2019-05-26T03:06:17.737Z,188.00
2019-05-26T03:07:17.733Z,200.00
2019-05-26T03:08:17.727Z,212.00
2019-05-26T03:09:23.137Z,228.00
2019-05-26T03:10:18.729Z,240.00
2019-05-26T03:11:17.682Z,252.00
2019-05-26T03:12:17.681Z,264.00
2019-05-26T03:13:17.659Z,280.00
2019-05-26T03:14:17.649Z,296.00
2019-05-26T03:15:17.636Z,312.00
2019-05-26T03:16:17.629Z,328.00
2019-05-26T03:17:17.612Z,348.00
2019-05-26T03:18:17.603Z,368.00
2019-05-26T03:19:17.589Z,384.00
2019-05-26T03:20:17.607Z,404.00
2019-05-26T03:21:17.567Z,424.00
2019-05-26T03:22:17.555Z,444.00
2019-05-26T03:23:17.550Z,472.00
2019-05-26T03:24:17.530Z,496.00
2019-05-26T03:25:17.534Z,528.00
2019-05-26T03:26:17.508Z,556.00
2019-05-26T03:27:17.511Z,588.00
2019-05-26T03:28:17.497Z,620.00
2019-05-26T03:29:17.475Z,652.00
2019-05-26T03:30:17.468Z,684.00
2019-05-26T03:31:17.455Z,712.00
2019-05-26T03:32:17.445Z,740.00
2019-05-26T03:33:17.429Z,764.00
2019-05-26T03:34:17.449Z,796.00
2019-05-26T03:35:17.412Z,816.00
2019-05-26T03:36:17.393Z,836.00
2019-05-26T03:37:17.384Z,848.00
2019-05-26T03:38:17.371Z,868.00
2019-05-26T03:39:17.358Z,888.00
2019-05-26T03:40:17.348Z,916.00
2019-05-26T03:41:17.383Z,952.00
2019-05-26T03:42:17.330Z,992.00
2019-05-26T03:43:17.314Z,1040.00
2019-05-26T03:44:17.326Z,1096.00
2019-05-26T03:45:17.291Z,1152.00
2019-05-26T03:46:17.453Z,1204.00
2019-05-26T03:47:17.392Z,1252.00
2019-05-26T03:48:17.259Z,1292.00
2019-05-26T03:49:17.245Z,1336.00
2019-05-26T03:50:17.237Z,1376.00
2019-05-26T03:51:17.235Z,1412.00
2019-05-26T03:52:17.229Z,1436.00
2019-05-26T03:53:17.200Z,1464.00
2019-05-26T03:54:17.190Z,1484.00
2019-05-26T03:55:17.177Z,1516.00
2019-05-26T03:56:17.165Z,1548.00
2019-05-26T03:57:17.155Z,1584.00
2019-05-26T03:58:17.149Z,1624.00
2019-05-26T03:59:17.144Z,1660.00
2019-05-26T04:00:17.120Z,1696.00
2019-05-26T04:01:17.109Z,1732.00
2019-05-26T04:02:17.110Z,1768.00
2019-05-26T04:03:17.223Z,1804.00
2019-05-26T04:04:17.075Z,1844.00
2019-05-26T04:05:17.070Z,1880.00
2019-05-26T04:06:17.056Z,1928.00
2019-05-26T04:07:17.044Z,1980.00
2019-05-26T04:08:17.034Z,2036.00
2019-05-26T04:09:17.022Z,2092.00
2019-05-26T04:10:17.012Z,2136.00
2019-05-26T04:11:17.000Z,2180.00
2019-05-26T04:12:16.992Z,2224.00
2019-05-26T04:13:16.975Z,2264.00
2019-05-26T04:14:16.961Z,2312.00
2019-05-26T04:15:16.953Z,2364.00
2019-05-26T04:16:16.945Z,2416.00
2019-05-26T04:17:16.929Z,2480.00
2019-05-26T04:18:16.916Z,2544.00
2019-05-26T04:19:16.907Z,2624.00
2019-05-26T04:20:16.905Z,2744.00
2019-05-26T04:21:16.888Z,2884.00
2019-05-26T04:22:16.872Z,3068.00
2019-05-26T04:23:16.859Z,3052.00
2019-05-26T04:24:16.851Z,3044.00
2019-05-26T04:25:16.859Z,3028.00
2019-05-26T04:26:16.831Z,3136.00
2019-05-26T04:27:16.818Z,3116.00
2019-05-26T04:28:16.805Z,3180.00
2019-05-26T04:29:16.793Z,3264.00
2019-05-26T04:30:16.790Z,3376.00
2019-05-26T04:31:16.773Z,3468.00
2019-05-26T04:32:16.768Z,3488.00
2019-05-26T04:33:16.750Z,3560.00
2019-05-26T04:34:16.738Z,3580.00
2019-05-26T04:35:16.728Z,3564.00
2019-05-26T04:36:16.717Z,3540.00
2019-05-26T04:37:16.710Z,3496.00
2019-05-26T04:38:16.693Z,3480.00
2019-05-26T04:39:16.683Z,3488.00
2019-05-26T04:40:26.587Z,3512.00
2019-05-26T04:41:17.680Z,3568.00
2019-05-26T04:42:16.669Z,3644.00
2019-05-26T04:43:16.650Z,3704.00
2019-05-26T04:44:16.625Z,3740.00
2019-05-26T04:45:16.614Z,3796.00
2019-05-26T04:46:16.605Z,3876.00
2019-05-26T04:47:16.592Z,4000.00
2019-05-26T04:48:16.582Z,4152.00
2019-05-26T04:49:16.577Z,4212.00
2019-05-26T04:50:16.578Z,4268.00
2019-05-26T04:51:16.561Z,4460.00
2019-05-26T04:52:16.538Z,4556.00
2019-05-26T04:53:16.525Z,4764.00
2019-05-26T04:54:16.519Z,4868.00
2019-05-26T04:55:16.507Z,5208.00
2019-05-26T04:56:16.498Z,5316.00
2019-05-26T04:57:16.482Z,5288.00
2019-05-26T04:58:16.472Z,5528.00
2019-05-26T04:59:16.463Z,5532.00
2019-05-26T05:00:16.452Z,5896.00
2019-05-26T05:01:16.437Z,6436.00
2019-05-26T05:02:16.424Z,6868.00
2019-05-26T05:03:16.433Z,7908.00
2019-05-26T05:04:16.408Z,7864.00
2019-05-26T05:05:16.396Z,7452.00
2019-05-26T05:06:16.382Z,7548.00
2019-05-26T05:07:16.389Z,6916.00
2019-05-26T05:08:16.360Z,6728.00
2019-05-26T05:09:16.349Z,6824.00
2019-05-26T05:10:16.336Z,6760.00
2019-05-26T05:11:16.331Z,6916.00
2019-05-26T05:12:16.322Z,7028.00
2019-05-26T05:13:16.303Z,7548.00
2019-05-26T05:14:16.294Z,8168.00
2019-05-26T05:15:16.283Z,8548.00
2019-05-26T05:16:16.272Z,8264.00
2019-05-26T05:17:16.266Z,8228.00
2019-05-26T05:18:16.258Z,9168.00
2019-05-26T05:19:16.236Z,10844.00
2019-05-26T05:20:16.231Z,9020.00
2019-05-26T05:21:16.219Z,10216.00
2019-05-26T05:22:16.202Z,11280.00
2019-05-26T05:23:16.192Z,12692.00
2019-05-26T05:24:16.189Z,13572.00
2019-05-26T05:25:16.169Z,13388.00
2019-05-26T05:26:16.159Z,14552.00
2019-05-26T05:27:16.151Z,15344.00
2019-05-26T05:28:16.142Z,16936.00
2019-05-26T05:29:16.130Z,16656.00
2019-05-26T05:30:16.124Z,16016.00
2019-05-26T05:31:16.102Z,16248.00
2019-05-26T05:32:16.090Z,16116.00
2019-05-26T05:33:16.094Z,16752.00
2019-05-26T05:34:16.074Z,17380.00
2019-05-26T05:35:16.057Z,17256.00
2019-05-26T05:36:16.048Z,16688.00
2019-05-26T05:37:16.450Z,16700.00
2019-05-26T05:38:16.027Z,15696.00
2019-05-26T05:39:16.013Z,16460.00
2019-05-26T05:40:16.004Z,15956.00
2019-05-26T05:41:15.996Z,15424.00
2019-05-26T05:42:15.981Z,15380.00
2019-05-26T05:43:15.972Z,13740.00
2019-05-26T05:44:15.961Z,13504.00
2019-05-26T05:45:15.952Z,11728.00
2019-05-26T05:46:15.936Z,13608.00
2019-05-26T05:47:15.928Z,13640.00
2019-05-26T05:48:15.949Z,13104.00
2019-05-26T05:49:15.904Z,12920.00
2019-05-26T05:50:15.896Z,13356.00
2019-05-26T05:51:15.886Z,15064.00
2019-05-26T05:52:15.874Z,13996.00
2019-05-26T05:53:15.861Z,13092.00
2019-05-26T05:54:15.855Z,12996.00
2019-05-26T05:55:15.846Z,15208.00
2019-05-26T05:56:15.831Z,15244.00
2019-05-26T05:57:15.822Z,15824.00
2019-05-26T05:58:15.809Z,16088.00
2019-05-26T05:59:15.803Z,14864.00
2019-05-26T06:00:15.790Z,15588.00
2019-05-26T06:01:15.774Z,16136.00
2019-05-26T06:02:15.762Z,17332.00
2019-05-26T06:03:18.591Z,17172.00
2019-05-26T06:04:15.740Z,17184.00
2019-05-26T06:05:15.731Z,17632.00
2019-05-26T06:06:15.717Z,17272.00
2019-05-26T06:07:15.712Z,15896.00
2019-05-26T06:08:15.694Z,16944.00
2019-05-26T06:09:15.690Z,15396.00
2019-05-26T06:10:15.678Z,15856.00
2019-05-26T06:11:17.293Z,16736.00
2019-05-26T06:12:15.656Z,17064.00
2019-05-26T06:13:15.641Z,17860.00
2019-05-26T06:14:15.627Z,17224.00
2019-05-26T06:15:17.153Z,18124.00
2019-05-26T06:16:15.605Z,19712.00
2019-05-26T06:17:15.601Z,19520.00
2019-05-26T06:18:15.590Z,20832.00
2019-05-26T06:19:15.599Z,20896.00
2019-05-26T06:20:15.599Z,20416.00
2019-05-26T06:21:15.561Z,20608.00
2019-05-26T06:22:15.543Z,21344.00
2019-05-26T06:23:15.547Z,19936.00
2019-05-26T06:24:15.558Z,20032.00
2019-05-26T06:25:15.552Z,19680.00
2019-05-26T06:26:15.495Z,20256.00
2019-05-26T06:27:15.483Z,21600.00
2019-05-26T06:28:15.471Z,22592.00
2019-05-26T06:29:15.460Z,20576.00
2019-05-26T06:30:15.446Z,21376.00
2019-05-26T06:31:15.442Z,21632.00
2019-05-26T06:32:15.799Z,22464.00
2019-05-26T06:33:15.421Z,23488.00
2019-05-26T06:34:15.408Z,24384.00
2019-05-26T06:35:15.397Z,22496.00
2019-05-26T06:36:15.382Z,21504.00
2019-05-26T06:37:15.377Z,21856.00
2019-05-26T06:38:15.362Z,23872.00
2019-05-26T06:39:15.349Z,26496.00
2019-05-26T06:40:15.338Z,27168.00
2019-05-26T06:41:30.421Z,24768.00
2019-05-26T06:42:39.795Z,24000.00
2019-05-26T06:43:39.785Z,29472.00
2019-05-26T06:44:52.996Z,29600.00
2019-05-26T06:45:40.812Z,25824.00
2019-05-26T06:46:39.752Z,24512.00
2019-05-26T06:47:39.783Z,26656.00
2019-05-26T06:48:39.728Z,23424.00
2019-05-26T06:49:39.723Z,30336.00
2019-05-26T06:50:39.707Z,30240.00
2019-05-26T06:51:39.710Z,29920.00
2019-05-26T06:52:39.689Z,29152.00
2019-05-26T06:53:39.675Z,27264.00
2019-05-26T06:54:39.665Z,26816.00
2019-05-26T06:55:39.651Z,28480.00
2019-05-26T06:56:39.637Z,28672.00
2019-05-26T06:57:39.635Z,24352.00
2019-05-26T06:58:39.615Z,26304.00
2019-05-26T06:59:39.608Z,25280.00
2019-05-26T07:00:39.595Z,25376.00
2019-05-26T07:01:39.588Z,25600.00
2019-05-26T07:02:39.571Z,33344.00
2019-05-26T07:03:39.561Z,32640.00
2019-05-26T07:04:39.548Z,28896.00
2019-05-26T07:05:39.547Z,30144.00
2019-05-26T07:06:39.533Z,22304.00
2019-05-26T07:07:39.519Z,32672.00
2019-05-26T07:08:39.517Z,36192.00
2019-05-26T07:09:39.496Z,37952.00
2019-05-26T07:10:39.487Z,35456.00
2019-05-26T07:11:53.987Z,27264.00
2019-05-26T07:13:03.951Z,27424.00
2019-05-26T07:14:03.930Z,30880.00
2019-05-26T07:15:03.927Z,32256.00
2019-05-26T07:16:03.918Z,35840.00
2019-05-26T07:17:03.905Z,35136.00
2019-05-26T07:18:03.886Z,33312.00
2019-05-26T07:19:03.878Z,26688.00
2019-05-26T07:20:03.866Z,33824.00
2019-05-26T07:21:03.854Z,35200.00
2019-05-26T07:22:03.845Z,35104.00
2019-05-26T07:23:05.379Z,35200.00
2019-05-26T07:24:03.821Z,32480.00
2019-05-26T07:25:03.810Z,32256.00
2019-05-26T07:26:03.799Z,30240.00
2019-05-26T07:27:03.787Z,28704.00
2019-05-26T07:28:03.777Z,27744.00
2019-05-26T07:29:03.773Z,27008.00
2019-05-26T07:30:03.752Z,25760.00
2019-05-26T07:31:03.744Z,25280.00
2019-05-26T07:32:03.731Z,26592.00
2019-05-26T07:33:03.733Z,27104.00
2019-05-26T07:34:03.706Z,24960.00
2019-05-26T07:35:03.696Z,25568.00
2019-05-26T07:36:03.693Z,26496.00
2019-05-26T07:37:03.676Z,25216.00
2019-05-26T07:38:03.672Z,25280.00
2019-05-26T07:39:03.654Z,25600.00
2019-05-26T07:40:03.647Z,26272.00
2019-05-26T07:41:03.628Z,26784.00
2019-05-26T07:42:09.975Z,27232.00
2019-05-26T07:43:28.388Z,28864.00
2019-05-26T07:44:28.072Z,29760.00
2019-05-26T07:45:28.056Z,31136.00
2019-05-26T07:46:28.050Z,31168.00
2019-05-26T07:47:28.034Z,28064.00
2019-05-26T07:48:28.025Z,28224.00
2019-05-26T07:49:28.012Z,27232.00
2019-05-26T07:50:28.008Z,26528.00
2019-05-26T07:51:27.990Z,25984.00
2019-05-26T07:52:27.979Z,26048.00
2019-05-26T07:53:27.971Z,26656.00
2019-05-26T07:54:27.958Z,28640.00
2019-05-26T07:55:27.950Z,28096.00
2019-05-26T07:56:27.945Z,26976.00
2019-05-26T07:57:27.921Z,25856.00
2019-05-26T07:58:27.913Z,24672.00
2019-05-26T07:59:27.906Z,25472.00
2019-05-26T08:00:27.889Z,26048.00
2019-05-26T08:01:35.573Z,25728.00
2019-05-26T08:02:28.888Z,26240.00
2019-05-26T08:03:27.855Z,27136.00
2019-05-26T08:04:27.848Z,26848.00
2019-05-26T08:05:27.934Z,25088.00
2019-05-26T08:06:27.820Z,20864.00
2019-05-26T08:07:27.811Z,21856.00
2019-05-26T08:08:27.802Z,19872.00
2019-05-26T08:09:27.791Z,17248.00
2019-05-26T08:10:27.777Z,15148.00
2019-05-26T08:11:27.775Z,13508.00
2019-05-26T08:12:30.597Z,15664.00
2019-05-26T08:13:27.743Z,13908.00
2019-05-26T08:14:27.739Z,14632.00
2019-05-26T08:15:27.720Z,11124.00
2019-05-26T08:16:27.720Z,11780.00
2019-05-26T08:17:27.705Z,12360.00
2019-05-26T08:18:27.687Z,11892.00
2019-05-26T08:19:27.673Z,10928.00
2019-05-26T08:20:27.665Z,10820.00
2019-05-26T08:21:27.657Z,11872.00
2019-05-26T08:22:27.641Z,13084.00
2019-05-26T08:23:27.630Z,13716.00
2019-05-26T08:24:27.619Z,15612.00
2019-05-26T08:25:27.606Z,17232.00
2019-05-26T08:26:27.598Z,17584.00
2019-05-26T08:27:27.590Z,15932.00
2019-05-26T08:28:27.579Z,15496.00
2019-05-26T08:29:27.561Z,17976.00
2019-05-26T08:30:27.552Z,26400.00
2019-05-26T08:31:27.537Z,29056.00
2019-05-26T08:32:27.530Z,30592.00
2019-05-26T08:33:27.515Z,29984.00
2019-05-26T08:34:27.509Z,29728.00
2019-05-26T08:35:27.494Z,28672.00
2019-05-26T08:36:27.480Z,29152.00
2019-05-26T08:37:27.472Z,29504.00
2019-05-26T08:38:27.461Z,29856.00
2019-05-26T08:39:27.452Z,29664.00
2019-05-26T08:40:27.439Z,30080.00
2019-05-26T08:41:27.426Z,31456.00
2019-05-26T08:42:42.059Z,31904.00
2019-05-26T08:43:51.885Z,32128.00
2019-05-26T08:44:51.876Z,32384.00
2019-05-26T08:45:51.863Z,32864.00
2019-05-26T08:46:51.854Z,32704.00
2019-05-26T08:47:51.855Z,34816.00
2019-05-26T08:48:51.831Z,36384.00
2019-05-26T08:49:51.823Z,36416.00
2019-05-26T08:50:51.810Z,37696.00
2019-05-26T08:51:51.800Z,37568.00
2019-05-26T08:52:51.787Z,40352.00
2019-05-26T08:53:51.777Z,36832.00
2019-05-26T08:54:51.770Z,37056.00
2019-05-26T08:55:51.759Z,36768.00
2019-05-26T08:56:51.742Z,38112.00
2019-05-26T08:57:51.733Z,40160.00
2019-05-26T08:58:51.721Z,41536.00
2019-05-26T08:59:51.709Z,42016.00
2019-05-26T09:00:51.709Z,42912.00
2019-05-26T09:01:51.695Z,41728.00
2019-05-26T09:02:51.677Z,41536.00
2019-05-26T09:03:51.663Z,42400.00
2019-05-26T09:04:51.657Z,45536.00
2019-05-26T09:05:51.641Z,43328.00
2019-05-26T09:06:51.636Z,44544.00
2019-05-26T09:07:51.621Z,44736.00
2019-05-26T09:08:51.613Z,45792.00
2019-05-26T09:09:51.602Z,46304.00
2019-05-26T09:10:51.587Z,45376.00
2019-05-26T09:11:51.578Z,47040.00
2019-05-26T09:13:00.804Z,25472.00
2019-05-26T09:13:52.576Z,51200.00
2019-05-26T09:14:51.547Z,51808.00
2019-05-26T09:15:51.533Z,20544.00
2019-05-26T09:16:51.523Z,52224.00
2019-05-26T09:17:51.521Z,54080.00
2019-05-26T09:18:51.502Z,53824.00
2019-05-26T09:19:51.490Z,25440.00
2019-05-26T09:20:51.483Z,56576.00
2019-05-26T09:21:51.473Z,56128.00
2019-05-26T09:22:51.469Z,53792.00
2019-05-26T09:23:51.452Z,53056.00
2019-05-26T09:24:51.443Z,50080.00
2019-05-26T09:25:51.431Z,21024.00
2019-05-26T09:26:51.418Z,21312.00
2019-05-26T09:27:51.409Z,42848.00
2019-05-26T09:28:51.401Z,22432.00
2019-05-26T09:29:51.383Z,34304.00
2019-05-26T09:30:51.371Z,37696.00
2019-05-26T09:31:51.361Z,44992.00
2019-05-26T09:32:51.362Z,46496.00
2019-05-26T09:33:51.346Z,46144.00
2019-05-26T09:34:51.331Z,43264.00
2019-05-26T09:35:51.317Z,45536.00
2019-05-26T09:36:51.306Z,44960.00
2019-05-26T09:37:51.301Z,49024.00
2019-05-26T09:38:51.308Z,49792.00
2019-05-26T09:39:51.287Z,46944.00
2019-05-26T09:40:51.277Z,14792.00
2019-05-26T09:41:51.275Z,47744.00
2019-05-26T09:42:51.280Z,36416.00
2019-05-26T09:43:51.284Z,54880.00
2019-05-26T09:44:51.229Z,31584.00
2019-05-26T09:45:51.228Z,22496.00
2019-05-26T09:46:51.232Z,17660.00
2019-05-26T09:47:51.258Z,14556.00
2019-05-26T09:48:51.237Z,13164.00
2019-05-26T09:49:51.176Z,18492.00
2019-05-26T09:50:51.154Z,26304.00
2019-05-26T09:51:51.149Z,43456.00
2019-05-26T09:52:51.139Z,17976.00
2019-05-26T09:54:01.226Z,45856.00
2019-05-26T09:55:15.589Z,45568.00
2019-05-26T09:56:15.579Z,48832.00
2019-05-26T09:57:15.565Z,51072.00
2019-05-26T09:58:15.554Z,53568.00
2019-05-26T09:59:15.544Z,43232.00
2019-05-26T10:00:16.327Z,50272.00
2019-05-26T10:01:15.528Z,39648.00
2019-05-26T10:02:15.511Z,46688.00
2019-05-26T10:03:15.502Z,49568.00
2019-05-26T10:04:15.489Z,19248.00
2019-05-26T10:05:15.485Z,19152.00
2019-05-26T10:06:15.468Z,22048.00
2019-05-26T10:07:16.108Z,47104.00
2019-05-26T10:08:15.449Z,47200.00
2019-05-26T10:09:15.436Z,27008.00
2019-05-26T10:10:15.426Z,18872.00
2019-05-26T10:11:15.413Z,23904.00
2019-05-26T10:12:15.414Z,33088.00
2019-05-26T10:13:30.603Z,38688.00
2019-05-26T10:14:16.402Z,24640.00
2019-05-26T10:15:15.371Z,25728.00
2019-05-26T10:16:15.373Z,16956.00
2019-05-26T10:17:15.354Z,31360.00
2019-05-26T10:18:15.347Z,37376.00
2019-05-26T10:19:15.333Z,19520.00
2019-05-26T10:20:15.318Z,19280.00
2019-05-26T10:21:15.311Z,32480.00
2019-05-26T10:22:15.292Z,14060.00
2019-05-26T10:23:15.288Z,19216.00
2019-05-26T10:24:15.275Z,34784.00
2019-05-26T10:25:15.260Z,34752.00
2019-05-26T10:26:15.250Z,36384.00
2019-05-26T10:27:15.237Z,19056.00
2019-05-26T10:28:15.229Z,15376.00
2019-05-26T10:29:15.216Z,25664.00
2019-05-26T10:30:15.206Z,27648.00
2019-05-26T10:31:15.195Z,31648.00
2019-05-26T10:32:15.192Z,18484.00
2019-05-26T10:33:15.172Z,19744.00
2019-05-26T10:34:15.170Z,39520.00
2019-05-26T10:35:15.152Z,37760.00
2019-05-26T10:36:15.139Z,18756.00
2019-05-26T10:37:15.138Z,21728.00
2019-05-26T10:38:15.117Z,10212.00
2019-05-26T10:39:15.108Z,8428.00
2019-05-26T10:40:15.105Z,9472.00
2019-05-26T10:41:15.093Z,34336.00
2019-05-26T10:42:15.077Z,23136.00
2019-05-26T10:43:15.067Z,23200.00
2019-05-26T10:44:15.056Z,37696.00
2019-05-26T10:45:15.043Z,39264.00
2019-05-26T10:46:15.034Z,30560.00
2019-05-26T10:47:15.021Z,32576.00
2019-05-26T10:48:15.009Z,30848.00
2019-05-26T10:49:15.000Z,29056.00
2019-05-26T10:50:14.989Z,28768.00
2019-05-26T10:51:14.981Z,23936.00
2019-05-26T10:52:14.966Z,15384.00
2019-05-26T10:53:14.958Z,12292.00
2019-05-26T10:54:14.944Z,18256.00
2019-05-26T10:55:14.937Z,28544.00
2019-05-26T10:56:14.923Z,40928.00
2019-05-26T10:57:14.912Z,29216.00
2019-05-26T10:58:14.901Z,47680.00
2019-05-26T10:59:14.889Z,35648.00
2019-05-26T11:00:14.880Z,20352.00
2019-05-26T11:01:14.868Z,16792.00
2019-05-26T11:02:14.873Z,26816.00
2019-05-26T11:03:14.848Z,17308.00
2019-05-26T11:04:14.837Z,15044.00
2019-05-26T11:05:14.832Z,24736.00
2019-05-26T11:06:14.812Z,15152.00
2019-05-26T11:07:14.807Z,14508.00
2019-05-26T11:08:14.795Z,15944.00
2019-05-26T11:09:14.779Z,15292.00
2019-05-26T11:10:14.773Z,30400.00
2019-05-26T11:11:14.759Z,43936.00
2019-05-26T11:12:14.762Z,25088.00
2019-05-26T11:13:14.738Z,18936.00
2019-05-26T11:14:14.728Z,24032.00
2019-05-26T11:15:14.716Z,23072.00
2019-05-26T11:16:14.705Z,20128.00
2019-05-26T11:17:14.698Z,25504.00
2019-05-26T11:18:14.683Z,26240.00
2019-05-26T11:19:14.676Z,28192.00
2019-05-26T11:20:14.660Z,23104.00
2019-05-26T11:21:14.649Z,27392.00
2019-05-26T11:22:14.638Z,38688.00
2019-05-26T11:23:14.631Z,46432.00
2019-05-26T11:24:14.617Z,34560.00
2019-05-26T11:25:14.617Z,18956.00
2019-05-26T11:26:14.595Z,18260.00
2019-05-26T11:27:15.119Z,18296.00
2019-05-26T11:28:14.575Z,17840.00
2019-05-26T11:29:14.563Z,17708.00
2019-05-26T11:30:14.591Z,17484.00
2019-05-26T11:31:14.548Z,18500.00
2019-05-26T11:32:14.537Z,51552.00
2019-05-26T11:33:14.519Z,39168.00
2019-05-26T11:34:14.549Z,31808.00
2019-05-26T11:35:14.498Z,43648.00
2019-05-26T11:36:14.485Z,43232.00
2019-05-26T11:37:14.487Z,36128.00
2019-05-26T11:38:14.469Z,36576.00
2019-05-26T11:39:14.454Z,27456.00
2019-05-26T11:40:14.442Z,25152.00
2019-05-26T11:41:14.434Z,43360.00
2019-05-26T11:42:14.659Z,32064.00
2019-05-26T11:43:17.011Z,31008.00
2019-05-26T11:44:17.851Z,57824.00
2019-05-26T11:45:14.391Z,36160.00
2019-05-26T11:46:16.539Z,32320.00
2019-05-26T11:47:14.373Z,26624.00
2019-05-26T11:48:14.365Z,32096.00
2019-05-26T11:49:14.354Z,20096.00
2019-05-26T11:50:14.351Z,17812.00
2019-05-26T11:51:14.327Z,16408.00
2019-05-26T11:52:14.317Z,16440.00
2019-05-26T11:53:14.308Z,15616.00
2019-05-26T11:54:14.298Z,15164.00
2019-05-26T11:55:14.294Z,14996.00
2019-05-26T11:56:14.277Z,15152.00
2019-05-26T11:57:14.263Z,15288.00
2019-05-26T11:58:14.252Z,15744.00
2019-05-26T11:59:14.247Z,14944.00
2019-05-26T12:00:14.348Z,14052.00
2019-05-26T12:01:14.219Z,13496.00
2019-05-26T12:02:14.210Z,13416.00
2019-05-26T12:03:14.197Z,13012.00
2019-05-26T12:04:14.205Z,13008.00
2019-05-26T12:05:17.539Z,14884.00
2019-05-26T12:06:14.164Z,14296.00
2019-05-26T12:07:14.156Z,15760.00
2019-05-26T12:08:14.142Z,16100.00
2019-05-26T12:09:14.147Z,20320.00
2019-05-26T12:10:14.616Z,17364.00
2019-05-26T12:11:14.110Z,18072.00
2019-05-26T12:12:14.100Z,28768.00
2019-05-26T12:13:14.089Z,21728.00
2019-05-26T12:14:14.079Z,23136.00
2019-05-26T12:15:14.100Z,20672.00
2019-05-26T12:16:14.055Z,18656.00
2019-05-26T12:17:14.049Z,17920.00
2019-05-26T12:18:14.048Z,22400.00
2019-05-26T12:19:14.022Z,18772.00
2019-05-26T12:20:14.017Z,17080.00
2019-05-26T12:21:14.002Z,16296.00
2019-05-26T12:22:14.009Z,15224.00
2019-05-26T12:23:13.980Z,14748.00
2019-05-26T12:24:13.974Z,13596.00
2019-05-26T12:25:13.976Z,13160.00
2019-05-26T12:26:13.947Z,14304.00
2019-05-26T12:27:13.936Z,16140.00
2019-05-26T12:28:13.933Z,23488.00
2019-05-26T12:29:13.919Z,15908.00
2019-05-26T12:30:13.904Z,15324.00
2019-05-26T12:31:13.897Z,15980.00
2019-05-26T12:32:13.890Z,14872.00
2019-05-26T12:33:13.922Z,15132.00
2019-05-26T12:34:13.865Z,14076.00
2019-05-26T12:35:13.854Z,13140.00
2019-05-26T12:36:13.845Z,12312.00
2019-05-26T12:37:13.830Z,11780.00
2019-05-26T12:38:13.821Z,11088.00
2019-05-26T12:39:13.810Z,10044.00
2019-05-26T12:40:13.808Z,9244.00
2019-05-26T12:41:13.788Z,9260.00
2019-05-26T12:42:16.892Z,9976.00
2019-05-26T12:43:13.772Z,11420.00
2019-05-26T12:44:13.755Z,12524.00
2019-05-26T12:45:13.743Z,13188.00
2019-05-26T12:46:13.734Z,13524.00
2019-05-26T12:47:13.724Z,14152.00
2019-05-26T12:48:13.721Z,17560.00
2019-05-26T12:49:13.706Z,14556.00
2019-05-26T12:50:13.700Z,14448.00
2019-05-26T12:51:13.680Z,13864.00
2019-05-26T12:52:13.683Z,13640.00
2019-05-26T12:53:13.668Z,13676.00
2019-05-26T12:54:13.648Z,13348.00
2019-05-26T12:55:13.640Z,13028.00
2019-05-26T12:56:13.671Z,12828.00
2019-05-26T12:57:13.614Z,12844.00
2019-05-26T12:58:13.625Z,12804.00
2019-05-26T12:59:13.601Z,12940.00
2019-05-26T13:00:13.585Z,13412.00
2019-05-26T13:01:13.576Z,14080.00
2019-05-26T13:02:13.565Z,14420.00
2019-05-26T13:03:13.553Z,13856.00
2019-05-26T13:04:13.546Z,13016.00
2019-05-26T13:05:13.530Z,12400.00
2019-05-26T13:06:13.523Z,12188.00
2019-05-26T13:07:13.519Z,12280.00
2019-05-26T13:08:13.504Z,12592.00
2019-05-26T13:09:13.490Z,13024.00
2019-05-26T13:10:13.475Z,13416.00
2019-05-26T13:11:13.468Z,13704.00
2019-05-26T13:12:13.456Z,13832.00
2019-05-26T13:13:13.449Z,13892.00
2019-05-26T13:14:13.445Z,13844.00
2019-05-26T13:15:13.428Z,13848.00
2019-05-26T13:16:13.410Z,13760.00
2019-05-26T13:17:13.402Z,13236.00
2019-05-26T13:18:13.393Z,12356.00
2019-05-26T13:19:13.378Z,11516.00
2019-05-26T13:20:13.369Z,10948.00
2019-05-26T13:21:13.359Z,10608.00
2019-05-26T13:22:13.347Z,10460.00
2019-05-26T13:23:13.342Z,10488.00
2019-05-26T13:24:13.338Z,10284.00
2019-05-26T13:25:13.318Z,10000.00
2019-05-26T13:26:13.303Z,9616.00
2019-05-26T13:27:13.294Z,9524.00
2019-05-26T13:28:13.281Z,9752.00
2019-05-26T13:29:13.278Z,10012.00
2019-05-26T13:30:13.288Z,10244.00
2019-05-26T13:31:13.251Z,10284.00
2019-05-26T13:32:13.239Z,10308.00
2019-05-26T13:33:13.233Z,10396.00
2019-05-26T13:34:13.219Z,10512.00
2019-05-26T13:35:13.208Z,10612.00
2019-05-26T13:36:13.195Z,10932.00
2019-05-26T13:37:13.185Z,11340.00
2019-05-26T13:38:13.184Z,11432.00
2019-05-26T13:39:13.171Z,11316.00
2019-05-26T13:40:13.155Z,11240.00
2019-05-26T13:41:13.149Z,10912.00
2019-05-26T13:42:13.148Z,10592.00
2019-05-26T13:43:13.121Z,10352.00
2019-05-26T13:44:13.113Z,10012.00
2019-05-26T13:45:22.489Z,9916.00
2019-05-26T13:46:14.106Z,10000.00
2019-05-26T13:47:25.394Z,10184.00
2019-05-26T13:48:14.086Z,10232.00
2019-05-26T13:49:13.074Z,9992.00
2019-05-26T13:50:13.047Z,9664.00
2019-05-26T13:51:13.037Z,9408.00
2019-05-26T13:52:13.039Z,9112.00
2019-05-26T13:53:13.018Z,8816.00
2019-05-26T13:54:13.001Z,8620.00
2019-05-26T13:55:12.995Z,8488.00
2019-05-26T13:56:12.985Z,8340.00
2019-05-26T13:57:12.972Z,8268.00
2019-05-26T13:58:12.960Z,8248.00
2019-05-26T13:59:12.946Z,8100.00
2019-05-26T14:00:13.000Z,7996.00
2019-05-26T14:01:12.926Z,7748.00
2019-05-26T14:02:12.937Z,7344.00
2019-05-26T14:03:12.943Z,7104.00
2019-05-26T14:04:12.892Z,7264.00
2019-05-26T14:05:12.879Z,7248.00
2019-05-26T14:06:12.870Z,7024.00
2019-05-26T14:07:12.863Z,7376.00
2019-05-26T14:08:12.850Z,8140.00
2019-05-26T14:09:12.837Z,8716.00
2019-05-26T14:10:12.827Z,9076.00
2019-05-26T14:11:12.816Z,8932.00
2019-05-26T14:12:12.804Z,8548.00